Time;durP1;ratioP1;P1;durP2;ratioP2;P2;SDS_P1;SDS_P2;PMS_P1;PMS_P2;Temp;Humidity;BMP_temperature;BMP_pressure;BME280_temperature;BME280_humidity;BME280_pressure;Samples;Min_cycle;Max_cycle;Signal;HPM_P1;HPM_P2
2023/07/07 00:02:01;;;;;;;5.35;3.22;;;;;;;27.52;51.36;96710.41;5033280;28;20472;-27
2023/07/07 00:04:27;;;;;;;3.65;2.83;;;;;;;27.44;51.56;96717.91;5033253;28;20497;-27
2023/07/07 00:06:53;;;;;;;5.10;3.13;;;;;;;27.52;51.28;96704.09;5033362;28;20078;-27
2023/07/07 00:09:18;;;;;;;4.88;3.00;;;;;;;27.50;51.00;96706.66;5033321;28;20518;-27
2023/07/07 00:11:44;;;;;;;4.75;3.20;;;;;;;27.45;51.46;96713.81;5033461;28;20029;-27
2023/07/07 00:14:09;;;;;;;4.95;3.35;;;;;;;27.40;51.37;96713.91;5033016;28;20091;-29
2023/07/07 00:16:37;;;;;;;5.22;3.28;;;;;;;27.48;51.45;96712.75;5032984;28;20498;-26
2023/07/07 00:19:03;;;;;;;3.95;2.90;;;;;;;27.54;51.06;96707.84;5033318;28;20120;-27
2023/07/07 00:21:29;;;;;;;6.22;3.55;;;;;;;27.49;51.16;96694.00;5032842;28;20360;-27
2023/07/07 00:23:56;;;;;;;6.45;3.40;;;;;;;27.43;51.41;96691.31;5033815;28;20116;-27
2023/07/07 00:26:24;;;;;;;4.88;3.70;;;;;;;27.58;51.09;96695.63;5039962;28;20021;-28
2023/07/07 00:28:50;;;;;;;7.13;3.90;;;;;;;27.61;51.13;96689.00;5032967;28;20029;-26
2023/07/07 00:31:17;;;;;;;5.32;3.38;;;;;;;27.40;51.47;96697.97;5032645;28;20138;-27
2023/07/07 00:33:42;;;;;;;5.90;3.75;;;;;;;27.41;51.80;96693.91;5032813;28;20036;-27
2023/07/07 00:36:08;;;;;;;4.68;3.50;;;;;;;27.50;51.15;96692.72;5039929;28;20367;-27
2023/07/07 00:38:34;;;;;;;6.28;3.42;;;;;;;27.47;51.26;96691.75;5033749;28;20079;-27
2023/07/07 00:41:01;;;;;;;6.50;3.67;;;;;;;27.36;51.64;96693.97;5036479;28;20017;-27
2023/07/07 00:43:26;;;;;;;6.10;3.80;;;;;;;27.41;50.79;96693.91;5044052;28;20510;-26
2023/07/07 00:45:52;;;;;;;6.78;3.42;;;;;;;27.37;50.80;96693.44;5036542;28;20048;-26
2023/07/07 00:48:31;;;;;;;5.10;4.10;;;;;;;27.50;50.33;96687.16;5035085;28;20080;-27
2023/07/07 00:51:23;;;;;;;4.72;3.65;;;;;;;27.25;50.80;96696.94;5041077;28;20022;-26
2023/07/07 00:53:51;;;;;;;7.47;3.67;;;;;;;27.51;50.22;96689.41;5030647;28;20033;-27
2023/07/07 00:56:26;;;;;;;4.85;3.45;;;;;;;27.40;50.50;96697.97;5036249;28;20053;-27
2023/07/07 00:58:53;;;;;;;5.13;3.78;;;;;;;27.39;50.72;96687.34;5036134;28;20049;-26
2023/07/07 01:01:18;;;;;;;7.65;3.70;;;;;;;27.29;50.32;96689.81;5035939;28;20014;-27
2023/07/07 01:03:52;;;;;;;5.82;3.58;;;;;;;27.40;50.09;96686.06;5036425;28;20371;-28
2023/07/07 01:06:26;;;;;;;4.88;3.67;;;;;;;27.07;50.46;96679.78;5043324;28;20021;-26
2023/07/07 01:08:58;;;;;;;5.55;3.90;;;;;;;27.14;50.35;96686.75;5035952;28;20025;-27
2023/07/07 01:11:24;;;;;;;5.32;3.35;;;;;;;27.14;49.97;96676.38;5035777;28;20033;-27
2023/07/07 01:13:50;;;;;;;4.78;3.13;;;;;;;27.20;50.12;96683.91;5035952;28;20451;-27
2023/07/07 01:16:30;;;;;;;5.57;3.40;;;;;;;27.11;50.12;96688.56;5035646;28;20017;-27
2023/07/07 01:19:15;;;;;;;4.82;3.15;;;;;;;27.15;49.93;96688.25;5036075;28;20087;-27
2023/07/07 01:22:15;;;;;;;5.53;3.50;;;;;;;27.36;49.24;96689.16;5045008;28;20502;-27
2023/07/07 01:25:00;;;;;;;5.57;3.55;;;;;;;27.34;49.66;96697.28;5035515;28;20034;-28
2023/07/07 01:27:32;;;;;;;5.07;3.50;;;;;;;27.42;49.36;96695.41;5036236;28;20408;-28
2023/07/07 01:30:31;;;;;;;7.75;3.83;;;;;;;27.18;49.66;96698.34;5035532;28;20034;-27
2023/07/07 01:32:58;;;;;;;6.53;4.00;;;;;;;27.22;50.11;96698.00;5035796;28;20036;-27
2023/07/07 01:35:23;;;;;;;5.07;3.63;;;;;;;27.38;49.71;96700.53;5035691;28;20054;-28
2023/07/07 01:38:00;;;;;;;4.25;3.58;;;;;;;27.25;49.97;96708.84;5035376;28;20026;-27
2023/07/07 01:40:50;;;;;;;5.32;3.78;;;;;;;27.44;48.94;96709.53;5042580;28;20475;-27
2023/07/07 01:43:26;;;;;;;5.68;3.58;;;;;;;27.35;49.14;96718.28;5034794;28;20098;-26
2023/07/07 01:46:08;;;;;;;5.53;3.55;;;;;;;27.44;48.88;96733.88;5035636;28;20026;-27
2023/07/07 01:48:51;;;;;;;8.40;3.65;;;;;;;27.47;48.65;96736.31;5042893;28;20063;-27
2023/07/07 01:51:18;;;;;;;;;;;;;;;27.39;48.89;96737.47;5035704;28;20080;-26
2023/07/07 01:53:47;;;;;;;4.25;3.33;;;;;;;27.43;48.85;96735.16;5034945;28;20290;-27
2023/07/07 01:56:19;;;;;;;4.82;3.22;;;;;;;27.26;49.36;96718.69;5035063;28;20025;-27
2023/07/07 01:58:46;;;;;;;3.78;2.97;;;;;;;27.20;48.71;96729.16;5042309;28;20024;-28
2023/07/07 02:01:12;;;;;;;3.53;3.00;;;;;;;27.35;48.21;96726.66;5035051;28;20132;-27
2023/07/07 02:03:37;;;;;;;4.72;3.25;;;;;;;27.35;48.10;96723.84;5035032;28;20118;-27
2023/07/07 02:06:02;;;;;;;5.05;3.28;;;;;;;27.32;48.07;96713.81;5047663;28;20129;-27
2023/07/07 02:08:28;;;;;;;7.63;3.53;;;;;;;27.42;47.93;96719.72;5034780;28;20028;-27
2023/07/07 02:10:53;;;;;;;5.72;3.50;;;;;;;27.39;47.36;96712.41;5034757;28;20447;-27
2023/07/07 02:13:19;;;;;;;5.15;3.28;;;;;;;27.28;47.77;96713.34;5034557;28;20029;-27
2023/07/07 02:15:44;;;;;;;3.60;2.88;;;;;;;27.31;47.87;96725.47;5035225;28;20071;-27
2023/07/07 02:18:10;;;;;;;4.40;2.80;;;;;;;27.10;48.14;96730.84;5034764;28;20056;-27
2023/07/07 02:20:35;;;;;;;5.60;3.30;;;;;;;27.07;48.59;96721.53;5034804;28;20071;-27
2023/07/07 02:23:01;;;;;;;7.60;3.60;;;;;;;27.01;48.85;96720.13;5034432;28;20117;-27
2023/07/07 02:25:26;;;;;;;7.53;3.60;;;;;;;27.14;48.10;96704.22;5034487;28;20025;-27
2023/07/07 02:27:52;;;;;;;5.53;3.20;;;;;;;27.26;48.09;96704.03;5035015;28;20044;-27
2023/07/07 02:30:17;;;;;;;6.07;3.50;;;;;;;27.28;47.49;96707.78;5037032;28;20024;-26
2023/07/07 02:32:42;;;;;;;9.00;3.58;;;;;;;27.17;47.10;96702.41;5038600;28;20026;-27
2023/07/07 02:35:08;;;;;;;6.07;3.13;;;;;;;27.24;47.17;96698.22;5034179;28;20061;-27
2023/07/07 02:37:34;;;;;;;3.70;3.20;;;;;;;27.10;47.66;96691.88;5034264;28;20041;-26
2023/07/07 02:39:59;;;;;;;5.13;3.45;;;;;;;26.87;48.20;96682.34;5033992;28;20025;-26
2023/07/07 02:42:25;;;;;;;4.85;3.22;;;;;;;27.02;48.58;96697.31;5041332;28;20033;-27
2023/07/07 02:44:50;;;;;;;3.58;3.22;;;;;;;27.12;48.59;96711.59;5046808;28;20032;-26
2023/07/07 02:47:16;;;;;;;8.52;4.00;;;;;;;27.24;48.41;96728.88;5043907;28;20028;-26
2023/07/07 02:49:41;;;;;;;7.78;3.40;;;;;;;27.35;47.61;96734.25;5044774;28;20056;-27
2023/07/07 02:52:07;;;;;;;4.50;3.70;;;;;;;27.21;47.38;96735.47;5051641;28;20032;-27
2023/07/07 02:54:34;;;;;;;7.43;3.78;;;;;;;27.14;47.80;96731.31;5050443;28;20470;-26
2023/07/07 02:56:59;;;;;;;4.88;3.15;;;;;;;27.05;47.62;96726.88;5040537;28;20116;-27
2023/07/07 02:59:25;;;;;;;4.05;3.00;;;;;;;27.00;47.84;96718.63;5048481;28;20494;-27
2023/07/07 03:01:50;;;;;;;6.07;4.05;;;;;;;27.25;47.13;96719.22;5043374;28;20100;-29
2023/07/07 03:04:16;;;;;;;4.38;3.30;;;;;;;27.04;47.73;96717.03;5051172;28;20103;-27
2023/07/07 03:06:42;;;;;;;5.10;3.28;;;;;;;27.15;47.51;96710.53;5043105;28;20025;-27
2023/07/07 03:09:08;;;;;;;3.88;3.05;;;;;;;26.84;47.66;96715.50;5051453;28;20410;-27
2023/07/07 03:11:33;;;;;;;4.50;3.30;;;;;;;27.11;47.78;96715.66;5043928;28;20555;-27
2023/07/07 03:13:59;;;;;;;3.95;3.15;;;;;;;27.19;47.24;96733.25;5050659;28;20028;-27
2023/07/07 03:16:30;;;;;;;5.30;3.33;;;;;;;27.09;48.00;96734.91;5044313;28;20021;-27
2023/07/07 03:18:59;;;;;;;4.00;3.05;;;;;;;27.14;48.39;96728.50;5049993;28;20071;-27
2023/07/07 03:21:25;;;;;;;4.32;3.50;;;;;;;27.07;48.47;96718.00;5044302;28;20017;-27
2023/07/07 03:23:51;;;;;;;4.75;3.35;;;;;;;26.97;48.92;96722.44;5042930;28;20029;-28
2023/07/07 03:26:19;;;;;;;5.25;3.20;;;;;;;27.12;48.12;96722.72;5051180;28;20013;-26
2023/07/07 03:28:45;;;;;;;4.55;3.47;;;;;;;27.23;47.69;96719.00;5044621;28;20087;-26
2023/07/07 03:31:13;;;;;;;5.93;3.42;;;;;;;27.08;48.29;96719.47;5042746;28;20033;-27
2023/07/07 03:33:40;;;;;;;3.47;3.15;;;;;;;27.06;48.22;96720.03;5050944;28;20021;-27
2023/07/07 03:36:09;;;;;;;3.95;3.20;;;;;;;27.03;48.55;96718.31;5042880;28;20036;-27
2023/07/07 03:38:36;;;;;;;5.28;3.70;;;;;;;26.91;48.95;96722.53;5047249;28;20032;-26
2023/07/07 03:41:01;;;;;;;5.45;3.53;;;;;;;26.97;48.65;96728.00;5047835;28;20028;-27
2023/07/07 03:43:27;;;;;;;7.35;3.88;;;;;;;26.98;48.61;96733.06;5040696;28;20041;-26
2023/07/07 03:45:52;;;;;;;5.63;3.65;;;;;;;27.16;48.49;96732.28;5041037;28;20017;-27
2023/07/07 03:48:19;;;;;;;4.68;3.30;;;;;;;27.17;48.61;96730.25;5041297;28;20517;-26
2023/07/07 03:50:58;;;;;;;6.15;3.45;;;;;;;27.26;48.54;96748.56;5050950;28;20017;-27
2023/07/07 03:53:23;;;;;;;5.95;3.75;;;;;;;27.14;48.50;96759.91;5043090;28;20465;-26
2023/07/07 03:55:49;;;;;;;6.75;3.20;;;;;;;27.17;48.47;96758.09;5044239;28;20052;-27
2023/07/07 03:58:14;;;;;;;7.03;3.47;;;;;;;27.12;48.35;96759.66;5043849;28;20020;-27
2023/07/07 04:00:40;;;;;;;4.68;3.85;;;;;;;27.11;48.65;96760.19;5042495;28;20024;-27
2023/07/07 04:03:05;;;;;;;5.75;3.25;;;;;;;27.20;48.68;96761.84;5050693;28;20025;-26
2023/07/07 04:05:30;;;;;;;4.70;3.25;;;;;;;27.15;48.61;96757.88;5043015;28;20029;-26
2023/07/07 04:07:56;;;;;;;6.88;3.38;;;;;;;27.16;48.40;96764.94;5050403;28;20013;-27
2023/07/07 04:10:21;;;;;;;6.70;3.40;;;;;;;27.10;48.58;96753.13;5044890;28;20487;-26
2023/07/07 04:12:47;;;;;;;6.30;3.53;;;;;;;27.05;48.86;96723.34;5049616;28;20051;-27
2023/07/07 04:15:12;;;;;;;5.65;3.05;;;;;;;27.12;47.94;96715.13;5054509;28;20021;-27
2023/07/07 04:17:38;;;;;;;4.40;2.83;;;;;;;26.89;49.01;96722.28;5054402;28;20117;-27
2023/07/07 04:20:06;;;;;;;6.70;3.28;;;;;;;27.07;48.05;96743.06;5052027;28;20462;-28
2023/07/07 04:22:31;;;;;;;3.70;2.67;;;;;;;27.14;48.10;96743.19;5050133;28;20025;-27
2023/07/07 04:25:13;;;;;;;5.10;3.20;;;;;;;27.09;48.31;96757.19;5053026;28;20377;-28
2023/07/07 04:27:39;;;;;;;5.57;3.35;;;;;;;27.12;48.36;96754.09;5050252;28;20020;-27
2023/07/07 04:30:05;;;;;;;5.28;3.20;;;;;;;26.91;48.75;96764.25;5046362;28;20155;-26
2023/07/07 04:32:32;;;;;;;4.13;3.67;;;;;;;27.16;47.94;96762.91;5054270;28;20021;-26
2023/07/07 04:34:59;;;;;;;6.15;3.47;;;;;;;27.24;48.46;96756.72;5046810;28;20028;-27
2023/07/07 04:37:24;;;;;;;5.57;3.00;;;;;;;27.04;48.55;96760.81;5053730;28;20049;-27
2023/07/07 04:39:50;;;;;;;5.35;3.45;;;;;;;26.74;49.51;96749.81;5047394;28;20032;-27
2023/07/07 04:42:16;;;;;;;6.88;3.05;;;;;;;27.13;48.35;96757.63;5045650;28;20049;-27
2023/07/07 04:44:41;;;;;;;3.58;3.10;;;;;;;27.11;48.13;96769.28;5047058;28;20028;-26
2023/07/07 04:47:06;;;;;;;4.22;2.95;;;;;;;26.98;48.99;96763.66;5040223;28;20109;-27
2023/07/07 04:49:32;;;;;;;7.30;3.70;;;;;;;27.14;48.55;96754.31;5053279;28;20025;-27
2023/07/07 04:51:57;;;;;;;4.10;3.15;;;;;;;26.84;48.74;96760.03;5048733;28;20049;-26
2023/07/07 04:54:23;;;;;;;10.05;3.30;;;;;;;26.90;48.79;96762.75;5050898;28;20024;-27
2023/07/07 04:56:48;;;;;;;6.28;3.05;;;;;;;26.98;48.82;96762.91;5053880;28;20024;-27
2023/07/07 04:59:16;;;;;;;9.43;3.80;;;;;;;27.08;48.55;96775.16;5053371;28;20421;-27
2023/07/07 05:01:44;;;;;;;5.18;3.13;;;;;;;27.06;48.83;96781.28;5045422;28;20025;-28
2023/07/07 05:04:10;;;;;;;4.18;3.28;;;;;;;27.17;48.38;96786.69;5053874;28;20475;-27
2023/07/07 05:06:38;;;;;;;5.00;3.50;;;;;;;26.98;48.81;96779.63;5045307;28;20047;-29
2023/07/07 05:09:05;;;;;;;5.30;3.10;;;;;;;27.04;49.43;96783.09;5053749;28;20588;-27
2023/07/07 05:11:33;;;;;;;4.53;3.58;;;;;;;27.12;49.24;96778.41;5046375;28;20036;-27
2023/07/07 05:13:59;;;;;;;6.90;3.10;;;;;;;27.06;49.51;96780.53;5045691;28;20017;-27
2023/07/07 05:16:35;;;;;;;5.40;3.33;;;;;;;27.15;49.31;96783.69;5046548;28;20025;-27
2023/07/07 05:19:01;;;;;;;6.78;3.50;;;;;;;26.98;49.74;96780.38;5045759;28;20045;-27
2023/07/07 05:21:27;;;;;;;5.93;3.00;;;;;;;26.98;49.65;96779.63;5053330;28;20360;-27
2023/07/07 05:23:53;;;;;;;7.20;3.75;;;;;;;27.20;49.49;96779.28;5044306;28;20360;-26
2023/07/07 05:26:27;;;;;;;5.40;3.10;;;;;;;27.06;49.92;96774.97;5044801;28;20356;-27
2023/07/07 05:28:53;;;;;;;8.75;3.45;;;;;;;27.11;49.54;96786.00;5045890;28;20029;-26
2023/07/07 05:31:20;;;;;;;3.53;3.13;;;;;;;27.17;49.50;96791.50;5052764;28;20037;-27
2023/07/07 05:33:45;;;;;;;6.70;3.08;;;;;;;27.17;49.66;96791.50;5047438;28;20017;-28
2023/07/07 05:36:11;;;;;;;5.63;3.08;;;;;;;27.14;49.96;96792.56;5044054;28;20452;-26
2023/07/07 05:38:39;;;;;;;6.90;3.40;;;;;;;27.15;50.23;96794.06;5052995;28;20495;-27
2023/07/07 05:41:05;;;;;;;5.15;3.00;;;;;;;27.20;49.70;96795.25;5052220;28;20021;-26
2023/07/07 05:43:31;;;;;;;7.50;3.53;;;;;;;27.34;49.50;96794.00;5042891;28;20052;-26
2023/07/07 05:46:07;;;;;;;5.28;3.15;;;;;;;27.12;49.61;96800.69;5048686;28;20020;-26
2023/07/07 05:48:33;;;;;;;5.65;3.13;;;;;;;27.22;49.45;96807.34;5044782;28;20073;-26
2023/07/07 05:51:01;;;;;;;4.10;2.88;;;;;;;27.22;49.63;96801.03;5047406;28;20033;-27
2023/07/07 05:53:27;;;;;;;4.78;2.97;;;;;;;27.31;49.37;96803.44;5043721;28;20100;-27
2023/07/07 05:56:03;;;;;;;5.93;3.53;;;;;;;27.37;49.38;96813.22;5052872;28;20028;-26
2023/07/07 05:58:29;;;;;;;5.63;3.30;;;;;;;27.25;49.73;96819.47;5044897;28;20510;-26
2023/07/07 06:00:55;;;;;;;5.32;3.00;;;;;;;27.37;49.44;96821.56;5046082;28;20020;-28
2023/07/07 06:03:20;;;;;;;4.30;3.05;;;;;;;27.39;49.55;96813.44;5045667;28;20017;-26
2023/07/07 06:05:47;;;;;;;4.45;2.90;;;;;;;27.13;49.93;96816.84;5043895;28;20557;-26
2023/07/07 06:08:13;;;;;;;3.40;2.80;;;;;;;27.43;49.49;96822.25;5045767;28;20017;-26
2023/07/07 06:10:38;;;;;;;6.28;3.55;;;;;;;27.34;49.70;96825.41;5051015;28;20075;-27
2023/07/07 06:13:04;;;;;;;5.22;3.38;;;;;;;27.23;49.82;96820.00;5052422;28;20020;-26
2023/07/07 06:15:30;;;;;;;5.07;3.42;;;;;;;27.33;49.97;96829.47;5046251;28;20032;-27
2023/07/07 06:17:56;;;;;;;6.10;3.60;;;;;;;27.40;49.52;96831.66;5050851;28;20025;-25
2023/07/07 06:20:22;;;;;;;5.70;3.13;;;;;;;27.37;49.96;96831.94;5050944;28;20036;-26
2023/07/07 06:22:47;;;;;;;4.57;3.25;;;;;;;27.24;49.99;96824.28;5051473;28;20063;-26
2023/07/07 06:25:12;;;;;;;4.93;3.00;;;;;;;27.41;50.17;96827.59;5042257;28;20018;-26
2023/07/07 06:27:38;;;;;;;5.63;3.08;;;;;;;27.23;50.60;96825.56;5047890;28;20024;-27
2023/07/07 06:30:04;;;;;;;4.72;3.05;;;;;;;27.38;49.81;96839.78;5043757;28;20394;-26
2023/07/07 06:32:29;;;;;;;6.45;3.15;;;;;;;27.51;49.25;96831.47;5045736;28;20025;-26
2023/07/07 06:34:55;;;;;;;4.40;3.10;;;;;;;27.43;49.52;96838.94;5045185;28;20021;-26
2023/07/07 06:37:20;;;;;;;5.55;2.97;;;;;;;27.41;49.43;96835.19;5050019;28;20049;-26
2023/07/07 06:39:46;;;;;;;5.60;2.80;;;;;;;27.41;49.58;96832.41;5045158;28;20033;-26
2023/07/07 06:42:12;;;;;;;5.75;3.03;;;;;;;27.40;49.36;96834.44;5036710;28;20037;-26
2023/07/07 06:44:40;;;;;;;4.75;3.03;;;;;;;27.54;49.13;96835.25;5051795;28;20359;-26
2023/07/07 06:47:11;;;;;;;5.85;2.85;;;;;;;27.49;49.48;96838.84;5044942;28;20017;-26
2023/07/07 06:49:36;;;;;;;4.22;3.35;;;;;;;27.58;49.25;96849.63;5044455;28;20029;-26
2023/07/07 06:52:02;;;;;;;3.70;2.75;;;;;;;27.52;48.87;96844.13;5039426;28;20029;-26
2023/07/07 06:54:27;;;;;;;3.90;2.90;;;;;;;27.34;48.94;96852.50;5049374;28;20017;-26
2023/07/07 06:56:53;;;;;;;4.07;3.05;;;;;;;27.61;48.96;96850.59;5048134;28;20021;-26
2023/07/07 06:59:18;;;;;;;4.05;2.90;;;;;;;27.48;48.97;96848.50;5048300;28;20044;-26
2023/07/07 07:01:44;;;;;;;4.18;3.13;;;;;;;27.57;49.08;96855.75;5050382;28;20064;-26
2023/07/07 07:04:09;;;;;;;4.55;2.97;;;;;;;27.47;48.99;96855.34;5051455;28;20036;-27
2023/07/07 07:06:34;;;;;;;5.10;2.90;;;;;;;27.53;49.42;96853.97;5042951;28;20020;-26
2023/07/07 07:09:00;;;;;;;5.15;2.92;;;;;;;27.57;48.95;96856.47;5051375;28;20027;-26
2023/07/07 07:11:25;;;;;;;4.13;2.80;;;;;;;27.74;48.29;96864.56;5044547;28;20033;-26
2023/07/07 07:13:51;;;;;;;4.00;2.80;;;;;;;27.69;48.19;96857.06;5050301;28;20111;-26
2023/07/07 07:16:16;;;;;;;4.25;2.95;;;;;;;27.67;48.24;96859.63;5044512;28;20092;-26
2023/07/07 07:18:42;;;;;;;5.53;3.60;;;;;;;27.65;48.14;96851.81;5050747;28;20047;-26
2023/07/07 07:21:07;;;;;;;6.53;3.05;;;;;;;27.73;47.85;96841.53;5043914;28;20021;-26
2023/07/07 07:23:33;;;;;;;4.80;2.88;;;;;;;27.63;47.83;96843.22;5045393;28;20032;-26
2023/07/07 07:25:58;;;;;;;3.55;2.50;;;;;;;27.80;47.54;96845.75;5042015;28;20025;-26
2023/07/07 07:28:23;;;;;;;4.82;2.83;;;;;;;27.60;48.16;96841.50;5047426;28;20217;-26
2023/07/07 07:30:49;;;;;;;3.78;2.83;;;;;;;27.74;48.09;96837.47;5040990;28;20034;-26
2023/07/07 07:33:20;;;;;;;3.30;2.60;;;;;;;27.89;47.35;96842.53;5048288;28;20036;-26
2023/07/07 07:35:45;;;;;;;4.43;2.60;;;;;;;27.78;47.45;96837.16;5046554;28;20028;-26
2023/07/07 07:38:11;;;;;;;3.65;2.50;;;;;;;27.78;47.67;96845.53;5049371;28;20025;-26
2023/07/07 07:40:37;;;;;;;4.85;2.60;;;;;;;27.83;47.81;96844.66;5041104;28;20395;-26
2023/07/07 07:43:03;;;;;;;3.20;2.80;;;;;;;27.85;47.47;96848.41;5040331;28;20068;-26
2023/07/07 07:45:28;;;;;;;5.15;2.63;;;;;;;27.92;47.32;96847.06;5050343;28;20400;-27
2023/07/07 07:47:54;;;;;;;5.40;2.35;;;;;;;27.90;47.27;96855.19;5045652;28;20032;-26
2023/07/07 07:50:21;;;;;;;6.53;3.28;;;;;;;27.99;46.91;96845.66;5047431;28;20497;-26
2023/07/07 07:52:46;;;;;;;2.95;2.60;;;;;;;27.94;47.02;96854.91;5048248;28;20364;-26
2023/07/07 07:55:14;;;;;;;3.22;2.92;;;;;;;28.05;47.16;96852.66;5048484;28;20017;-26
2023/07/07 07:57:40;;;;;;;5.60;2.70;;;;;;;27.90;47.61;96857.97;5047211;28;20035;-26
2023/07/07 08:00:06;;;;;;;3.90;3.10;;;;;;;27.98;47.67;96850.50;5054898;28;20017;-26
2023/07/07 08:02:31;;;;;;;6.63;3.15;;;;;;;27.98;47.29;96849.75;5046997;28;20029;-26
2023/07/07 08:04:57;;;;;;;5.30;3.58;;;;;;;28.06;47.35;96851.38;5044657;28;20026;-26
2023/07/07 08:07:22;;;;;;;5.78;3.13;;;;;;;27.95;47.49;96845.22;5051377;28;20024;-26
2023/07/07 08:09:48;;;;;;;4.88;3.05;;;;;;;27.92;47.56;96841.47;5052378;28;20051;-26
2023/07/07 08:12:14;;;;;;;4.10;3.15;;;;;;;28.08;47.15;96837.63;5049062;28;20477;-26
2023/07/07 08:14:40;;;;;;;5.03;3.17;;;;;;;28.10;47.20;96848.25;5054082;28;20426;-26
2023/07/07 08:17:10;;;;;;;7.28;3.40;;;;;;;28.04;47.41;96848.38;5047191;28;20127;-26
2023/07/07 08:19:39;;;;;;;5.13;3.03;;;;;;;28.06;47.38;96843.00;5054660;28;20040;-26
2023/07/07 08:22:07;;;;;;;4.80;2.85;;;;;;;28.15;47.21;96842.59;5053702;28;20394;-27
2023/07/07 08:24:39;;;;;;;4.68;3.30;;;;;;;28.20;47.22;96829.84;5047095;28;20082;-26
2023/07/07 08:27:05;;;;;;;5.13;3.45;;;;;;;28.14;47.74;96848.69;5053526;28;20112;-26
2023/07/07 08:29:31;;;;;;;5.63;3.25;;;;;;;28.04;48.36;96853.94;5047390;28;20026;-26
2023/07/07 08:31:56;;;;;;;4.53;3.28;;;;;;;28.11;48.04;96844.94;5046655;28;20038;-26
2023/07/07 08:34:22;;;;;;;5.45;3.35;;;;;;;28.05;48.20;96840.75;5054045;28;20024;-26
2023/07/07 08:36:47;;;;;;;4.70;3.03;;;;;;;28.04;48.36;96848.38;5047366;28;20036;-26
2023/07/07 08:39:17;;;;;;;4.50;3.30;;;;;;;28.09;48.15;96850.28;5046380;28;20075;-27
2023/07/07 08:41:51;;;;;;;5.05;3.50;;;;;;;28.18;48.09;96840.81;5049091;28;20076;-26
2023/07/07 08:44:23;;;;;;;5.90;3.38;;;;;;;28.22;48.04;96847.53;5045000;28;20017;-26
2023/07/07 08:47:03;;;;;;;4.97;3.60;;;;;;;28.06;48.66;96845.81;5042671;28;20467;-26
2023/07/07 08:49:43;;;;;;;4.15;2.83;;;;;;;28.24;48.05;96844.97;5052695;28;20024;-26
2023/07/07 08:52:17;;;;;;;5.47;3.50;;;;;;;28.03;48.78;96846.88;5047395;28;20013;-26
2023/07/07 08:55:15;;;;;;;5.72;3.10;;;;;;;28.21;48.43;96864.81;5047005;28;20025;-26
2023/07/07 08:57:57;;;;;;;5.07;3.15;;;;;;;28.17;48.64;96850.44;4995713;28;20120;-26
2023/07/07 09:00:45;;;;;;;4.90;3.58;;;;;;;28.19;48.71;96854.19;4994562;28;20041;-26
2023/07/07 09:03:32;;;;;;;4.57;3.50;;;;;;;28.26;48.87;96850.03;4995670;28;20022;-26
2023/07/07 09:06:06;;;;;;;7.82;3.95;;;;;;;28.19;49.28;96854.19;4995598;28;20026;-26
2023/07/07 09:08:41;;;;;;;6.78;3.70;;;;;;;28.21;49.05;96854.41;4995597;28;20043;-26
2023/07/07 09:11:29;;;;;;;6.38;3.40;;;;;;;28.22;48.92;96858.69;4995294;28;20514;-26
2023/07/07 09:13:58;;;;;;;7.22;3.58;;;;;;;28.34;48.83;96844.53;4995989;28;20945;-27
2023/07/07 09:16:29;;;;;;;6.63;3.70;;;;;;;28.27;49.06;96856.34;4995047;28;20026;-26
2023/07/07 09:19:08;;;;;;;6.57;3.85;;;;;;;28.21;48.77;96850.88;4995153;28;20038;-26
2023/07/07 09:21:45;;;;;;;6.45;3.78;;;;;;;28.21;48.87;96846.03;4994870;28;20026;-27
2023/07/07 09:24:20;;;;;;;6.40;3.95;;;;;;;28.29;48.74;96846.16;5002118;28;20033;-26
2023/07/07 09:26:49;;;;;;;6.47;4.32;;;;;;;28.32;48.22;96844.34;4994698;28;20092;-26
2023/07/07 09:29:35;;;;;;;5.82;3.58;;;;;;;28.35;47.85;96855.19;5002308;28;20030;-26
2023/07/07 09:32:02;;;;;;;5.45;3.75;;;;;;;28.40;47.96;96850.78;4994690;28;20064;-28
2023/07/07 09:34:30;;;;;;;5.03;3.65;;;;;;;28.33;47.38;96851.41;5039477;28;20024;-26
2023/07/07 09:37:01;;;;;;;7.28;3.35;;;;;;;28.32;46.83;96856.25;5046506;28;20021;-26
2023/07/07 09:39:29;;;;;;;4.70;3.40;;;;;;;28.31;47.08;96862.38;5045857;28;20171;-27
2023/07/07 09:42:13;;;;;;;15.10;3.55;;;;;;;28.35;47.06;96855.19;5046361;28;20032;-26
2023/07/07 09:44:44;;;;;;;7.75;3.55;;;;;;;28.37;46.96;96866.56;5034992;28;20021;-26
2023/07/07 09:47:16;;;;;;;8.38;3.38;;;;;;;28.39;46.43;96854.88;5036049;28;20032;-26
2023/07/07 09:49:49;;;;;;;6.50;3.90;;;;;;;28.36;46.11;96867.09;5045885;28;20380;-26
2023/07/07 09:52:39;;;;;;;6.10;3.55;;;;;;;28.40;46.22;96864.75;5045697;28;20032;-26
2023/07/07 09:55:27;;;;;;;4.95;3.30;;;;;;;28.46;46.06;96866.13;5048272;28;20028;-26
2023/07/07 09:58:04;;;;;;;6.38;3.47;;;;;;;28.50;45.72;96860.22;5046222;28;20028;-26
2023/07/07 10:00:33;;;;;;;4.90;3.65;;;;;;;28.44;45.03;96862.34;5051489;28;20536;-26
2023/07/07 10:02:59;;;;;;;6.65;3.50;;;;;;;28.43;44.86;96872.03;5045848;28;20348;-26
2023/07/07 10:05:31;;;;;;;6.03;3.10;;;;;;;28.43;45.03;96860.88;5052375;28;20124;-26
2023/07/07 10:08:00;;;;;;;5.30;3.13;;;;;;;28.44;44.12;96863.09;5045668;28;20021;-26
2023/07/07 10:10:25;;;;;;;7.28;3.33;;;;;;;28.43;43.98;96861.63;5046238;28;20021;-26
2023/07/07 10:12:51;;;;;;;4.55;3.00;;;;;;;28.47;43.25;96861.28;5049348;28;20429;-26
2023/07/07 10:15:20;;;;;;;6.35;3.60;;;;;;;28.46;43.34;96860.53;5042253;28;20471;-26
2023/07/07 10:17:53;;;;;;;5.35;3.05;;;;;;;28.47;43.49;96856.47;5049333;28;20053;-27
2023/07/07 10:20:20;;;;;;;4.55;3.25;;;;;;;28.59;43.28;96865.38;5048476;28;20029;-28
2023/07/07 10:22:46;;;;;;;6.05;3.13;;;;;;;28.52;42.91;96857.66;5049205;28;20104;-28
2023/07/07 10:25:20;;;;;;;5.55;3.35;;;;;;;28.59;43.16;96857.00;5042079;28;20449;-26
2023/07/07 10:27:53;;;;;;;4.53;3.40;;;;;;;28.55;41.81;96864.97;5048661;28;20021;-28
2023/07/07 10:30:19;;;;;;;5.65;3.13;;;;;;;28.55;41.69;96865.72;5051795;28;20021;-26
2023/07/07 10:32:46;;;;;;;11.70;3.53;;;;;;;28.51;41.20;96856.16;5051972;28;20071;-26
2023/07/07 10:35:18;;;;;;;6.38;3.25;;;;;;;28.51;41.65;96862.47;5043091;28;20021;-26
2023/07/07 10:37:44;;;;;;;7.37;3.20;;;;;;;28.58;41.79;96861.81;5045714;28;20390;-26
2023/07/07 10:40:15;;;;;;;5.75;3.50;;;;;;;28.60;41.31;96855.72;5050608;28;20048;-28
2023/07/07 10:42:40;;;;;;;5.40;2.97;;;;;;;28.66;41.04;96856.38;5044408;28;20467;-27
2023/07/07 10:45:07;;;;;;;4.88;3.05;;;;;;;28.57;41.40;96859.56;5044944;28;20114;-26
2023/07/07 10:47:35;;;;;;;8.07;3.42;;;;;;;28.66;41.90;96861.94;5037213;28;20437;-27
2023/07/07 10:50:03;;;;;;;6.07;2.97;;;;;;;28.57;41.06;96856.78;5045010;28;20100;-26
2023/07/07 10:52:43;;;;;;;5.30;2.92;;;;;;;28.65;40.65;96863.22;5037010;28;20482;-26
2023/07/07 10:55:31;;;;;;;4.88;3.30;;;;;;;28.65;41.19;96868.81;5051656;28;20024;-26
2023/07/07 10:58:35;;;;;;;5.55;3.33;;;;;;;28.70;40.85;96869.97;5038788;28;20474;-26
2023/07/07 11:01:20;;;;;;;4.30;2.92;;;;;;;28.65;40.59;96868.06;4998175;28;20134;-26
2023/07/07 11:04:25;;;;;;;4.47;3.00;;;;;;;28.66;40.83;96873.13;4993293;28;20372;-26
2023/07/07 11:07:08;;;;;;;5.60;3.10;;;;;;;28.71;40.45;96868.69;5000432;28;20034;-27
2023/07/07 11:10:01;;;;;;;6.35;3.10;;;;;;;28.67;41.10;96869.03;4993081;28;20488;-28
2023/07/07 11:12:35;;;;;;;6.13;3.10;;;;;;;28.68;41.08;96875.38;4992992;28;20124;-26
2023/07/07 11:15:15;;;;;;;7.57;3.78;;;;;;;28.68;41.15;96875.38;4999493;28;20026;-26
2023/07/07 11:18:10;;;;;;;5.95;3.58;;;;;;;28.72;41.27;96873.75;4993311;28;20034;-26
2023/07/07 11:20:38;;;;;;;9.13;4.05;;;;;;;28.81;41.62;96875.38;4996577;28;20085;-26
2023/07/07 11:23:18;;;;;;;4.60;3.45;;;;;;;28.84;41.70;96883.41;4992487;28;20041;-26
2023/07/07 11:26:00;;;;;;;6.57;3.60;;;;;;;28.85;41.62;96889.75;4992249;28;20456;-27
2023/07/07 11:28:31;;;;;;;6.22;3.33;;;;;;;28.84;41.89;96889.00;4992227;28;20026;-26
2023/07/07 11:31:28;;;;;;;4.85;3.47;;;;;;;28.88;41.54;96895.03;5000279;28;20379;-26
2023/07/07 11:34:02;;;;;;;5.78;3.70;;;;;;;28.82;42.00;96886.00;5041175;28;20056;-28
2023/07/07 11:37:06;;;;;;;4.72;3.40;;;;;;;28.84;41.95;96877.84;5043957;28;20056;-26
2023/07/07 11:39:56;;;;;;;7.75;3.97;;;;;;;28.93;41.65;96879.44;5023258;28;20037;-26
2023/07/07 11:42:50;;;;;;;6.60;3.22;;;;;;;28.91;42.02;96882.78;5035699;28;20132;-26
2023/07/07 11:45:19;;;;;;;7.30;3.55;;;;;;;28.87;42.52;96876.00;5049275;28;20037;-26
2023/07/07 11:48:17;;;;;;;6.18;3.20;;;;;;;28.86;42.57;96880.84;5043592;28;20435;-27